<?xml version="1.0" encoding="UTF-8" standalone="no" ?>
<gpx xmlns="http://www.topografix.com/GPX/1/1" xmlns:xsi="http://www.w3.org/2001/XMLSchema-instance" xsi:schemaLocation="http://www.topografix.com/GPX/1/1 http://www.topografix.com/GPX/1/1/gpx.xsd" version="1.1" creator="VisuGPX - https://www.visugpx.com">
  <metadata>
    <name>Ratière Invitational: la descente</name>
    <desc><![CDATA[la descente est encore plus simple: c\'est l\'itinéraire le plus direct pour descendre...]]></desc>
  </metadata>
  <trk>
    <name><![CDATA[Ratièrd Invitational descente]]></name>
    <trkseg>
      <trkpt lat="44.86969" lon="6.57413">
        <ele>1797</ele>
        <time>2015-04-19T15:22:32Z</time>
      </trkpt>
      <trkpt lat="44.86963" lon="6.57432">
        <ele>1792</ele>
        <time>2015-04-19T15:22:41Z</time>
      </trkpt>
      <trkpt lat="44.86965" lon="6.57426">
        <ele>1774</ele>
        <time>2015-04-19T15:23:00Z</time>
      </trkpt>
      <trkpt lat="44.86968" lon="6.5742">
        <ele>1774</ele>
        <time>2015-04-19T15:23:02Z</time>
      </trkpt>
      <trkpt lat="44.86971" lon="6.57413">
        <ele>1774</ele>
        <time>2015-04-19T15:23:05Z</time>
      </trkpt>
      <trkpt lat="44.86966" lon="6.5741">
        <ele>1774</ele>
        <time>2015-04-19T15:23:10Z</time>
      </trkpt>
      <trkpt lat="44.86959" lon="6.57416">
        <ele>1773</ele>
        <time>2015-04-19T15:23:12Z</time>
      </trkpt>
      <trkpt lat="44.86955" lon="6.5742">
        <ele>1772</ele>
        <time>2015-04-19T15:23:13Z</time>
      </trkpt>
      <trkpt lat="44.86951" lon="6.57425">
        <ele>1771</ele>
        <time>2015-04-19T15:23:14Z</time>
      </trkpt>
      <trkpt lat="44.86944" lon="6.57434">
        <ele>1769</ele>
        <time>2015-04-19T15:23:16Z</time>
      </trkpt>
      <trkpt lat="44.86939" lon="6.5744">
        <ele>1768</ele>
        <time>2015-04-19T15:23:17Z</time>
      </trkpt>
      <trkpt lat="44.86933" lon="6.57449">
        <ele>1768</ele>
        <time>2015-04-19T15:23:18Z</time>
      </trkpt>
      <trkpt lat="44.86927" lon="6.57457">
        <ele>1767</ele>
        <time>2015-04-19T15:23:19Z</time>
      </trkpt>
      <trkpt lat="44.86921" lon="6.57464">
        <ele>1765</ele>
        <time>2015-04-19T15:23:20Z</time>
      </trkpt>
      <trkpt lat="44.86917" lon="6.57474">
        <ele>1764</ele>
        <time>2015-04-19T15:23:21Z</time>
      </trkpt>
      <trkpt lat="44.86912" lon="6.57483">
        <ele>1762</ele>
        <time>2015-04-19T15:23:22Z</time>
      </trkpt>
      <trkpt lat="44.86908" lon="6.57493">
        <ele>1761</ele>
        <time>2015-04-19T15:23:23Z</time>
      </trkpt>
      <trkpt lat="44.86903" lon="6.57502">
        <ele>1759</ele>
        <time>2015-04-19T15:23:24Z</time>
      </trkpt>
      <trkpt lat="44.86898" lon="6.57508">
        <ele>1757</ele>
        <time>2015-04-19T15:23:25Z</time>
      </trkpt>
      <trkpt lat="44.86894" lon="6.57512">
        <ele>1755</ele>
        <time>2015-04-19T15:23:26Z</time>
      </trkpt>
      <trkpt lat="44.86886" lon="6.57517">
        <ele>1752</ele>
        <time>2015-04-19T15:23:28Z</time>
      </trkpt>
      <trkpt lat="44.86881" lon="6.5752">
        <ele>1751</ele>
        <time>2015-04-19T15:23:29Z</time>
      </trkpt>
      <trkpt lat="44.86876" lon="6.57523">
        <ele>1750</ele>
        <time>2015-04-19T15:23:30Z</time>
      </trkpt>
      <trkpt lat="44.86869" lon="6.57527">
        <ele>1748</ele>
        <time>2015-04-19T15:23:32Z</time>
      </trkpt>
      <trkpt lat="44.86864" lon="6.57529">
        <ele>1747</ele>
        <time>2015-04-19T15:23:33Z</time>
      </trkpt>
      <trkpt lat="44.86858" lon="6.5753">
        <ele>1746</ele>
        <time>2015-04-19T15:23:34Z</time>
      </trkpt>
      <trkpt lat="44.86853" lon="6.57529">
        <ele>1745</ele>
        <time>2015-04-19T15:23:35Z</time>
      </trkpt>
      <trkpt lat="44.86848" lon="6.57528">
        <ele>1744</ele>
        <time>2015-04-19T15:23:36Z</time>
      </trkpt>
      <trkpt lat="44.86842" lon="6.57526">
        <ele>1741</ele>
        <time>2015-04-19T15:23:38Z</time>
      </trkpt>
      <trkpt lat="44.86836" lon="6.57522">
        <ele>1740</ele>
        <time>2015-04-19T15:23:40Z</time>
      </trkpt>
      <trkpt lat="44.86829" lon="6.57518">
        <ele>1736</ele>
        <time>2015-04-19T15:23:42Z</time>
      </trkpt>
      <trkpt lat="44.86823" lon="6.57513">
        <ele>1732</ele>
        <time>2015-04-19T15:23:44Z</time>
      </trkpt>
      <trkpt lat="44.86816" lon="6.57507">
        <ele>1725</ele>
        <time>2015-04-19T15:23:46Z</time>
      </trkpt>
      <trkpt lat="44.86812" lon="6.57502">
        <ele>1722</ele>
        <time>2015-04-19T15:23:47Z</time>
      </trkpt>
      <trkpt lat="44.86808" lon="6.57496">
        <ele>1720</ele>
        <time>2015-04-19T15:23:48Z</time>
      </trkpt>
      <trkpt lat="44.86803" lon="6.57489">
        <ele>1718</ele>
        <time>2015-04-19T15:23:49Z</time>
      </trkpt>
      <trkpt lat="44.86799" lon="6.57483">
        <ele>1717</ele>
        <time>2015-04-19T15:23:50Z</time>
      </trkpt>
      <trkpt lat="44.86796" lon="6.57476">
        <ele>1716</ele>
        <time>2015-04-19T15:23:51Z</time>
      </trkpt>
      <trkpt lat="44.86794" lon="6.57469">
        <ele>1716</ele>
        <time>2015-04-19T15:23:53Z</time>
      </trkpt>
      <trkpt lat="44.86792" lon="6.5746">
        <ele>1716</ele>
        <time>2015-04-19T15:23:55Z</time>
      </trkpt>
      <trkpt lat="44.86791" lon="6.57451">
        <ele>1716</ele>
        <time>2015-04-19T15:23:58Z</time>
      </trkpt>
      <trkpt lat="44.8679" lon="6.57443">
        <ele>1716</ele>
        <time>2015-04-19T15:24:01Z</time>
      </trkpt>
      <trkpt lat="44.86783" lon="6.57443">
        <ele>1716</ele>
        <time>2015-04-19T15:24:12Z</time>
      </trkpt>
      <trkpt lat="44.86778" lon="6.57446">
        <ele>1716</ele>
        <time>2015-04-19T15:24:13Z</time>
      </trkpt>
      <trkpt lat="44.86771" lon="6.57448">
        <ele>1716</ele>
        <time>2015-04-19T15:24:14Z</time>
      </trkpt>
      <trkpt lat="44.86765" lon="6.57451">
        <ele>1716</ele>
        <time>2015-04-19T15:24:15Z</time>
      </trkpt>
      <trkpt lat="44.86759" lon="6.57455">
        <ele>1716</ele>
        <time>2015-04-19T15:24:17Z</time>
      </trkpt>
      <trkpt lat="44.86754" lon="6.57457">
        <ele>1716</ele>
        <time>2015-04-19T15:24:19Z</time>
      </trkpt>
      <trkpt lat="44.86751" lon="6.57451">
        <ele>1715</ele>
        <time>2015-04-19T15:24:21Z</time>
      </trkpt>
      <trkpt lat="44.8675" lon="6.57439">
        <ele>1715</ele>
        <time>2015-04-19T15:24:23Z</time>
      </trkpt>
      <trkpt lat="44.8675" lon="6.57426">
        <ele>1714</ele>
        <time>2015-04-19T15:24:25Z</time>
      </trkpt>
      <trkpt lat="44.8675" lon="6.57413">
        <ele>1711</ele>
        <time>2015-04-19T15:24:27Z</time>
      </trkpt>
      <trkpt lat="44.86751" lon="6.57403">
        <ele>1709</ele>
        <time>2015-04-19T15:24:29Z</time>
      </trkpt>
      <trkpt lat="44.86744" lon="6.57401">
        <ele>1708</ele>
        <time>2015-04-19T15:24:35Z</time>
      </trkpt>
      <trkpt lat="44.8674" lon="6.57404">
        <ele>1708</ele>
        <time>2015-04-19T15:24:37Z</time>
      </trkpt>
      <trkpt lat="44.86736" lon="6.57399">
        <ele>1707</ele>
        <time>2015-04-19T15:24:41Z</time>
      </trkpt>
      <trkpt lat="44.86731" lon="6.57406">
        <ele>1706</ele>
        <time>2015-04-19T15:24:45Z</time>
      </trkpt>
      <trkpt lat="44.86727" lon="6.57412">
        <ele>1706</ele>
        <time>2015-04-19T15:24:46Z</time>
      </trkpt>
      <trkpt lat="44.86723" lon="6.57417">
        <ele>1706</ele>
        <time>2015-04-19T15:24:47Z</time>
      </trkpt>
      <trkpt lat="44.8672" lon="6.57422">
        <ele>1705</ele>
        <time>2015-04-19T15:24:49Z</time>
      </trkpt>
      <trkpt lat="44.86715" lon="6.57418">
        <ele>1703</ele>
        <time>2015-04-19T15:24:52Z</time>
      </trkpt>
      <trkpt lat="44.86712" lon="6.5741">
        <ele>1703</ele>
        <time>2015-04-19T15:24:54Z</time>
      </trkpt>
      <trkpt lat="44.8671" lon="6.57403">
        <ele>1699</ele>
        <time>2015-04-19T15:24:55Z</time>
      </trkpt>
      <trkpt lat="44.86702" lon="6.57395">
        <ele>1693</ele>
        <time>2015-04-19T15:24:57Z</time>
      </trkpt>
      <trkpt lat="44.86696" lon="6.57389">
        <ele>1691</ele>
        <time>2015-04-19T15:24:58Z</time>
      </trkpt>
      <trkpt lat="44.8669" lon="6.5738">
        <ele>1690</ele>
        <time>2015-04-19T15:25:00Z</time>
      </trkpt>
      <trkpt lat="44.86687" lon="6.57374">
        <ele>1690</ele>
        <time>2015-04-19T15:25:01Z</time>
      </trkpt>
      <trkpt lat="44.86682" lon="6.57366">
        <ele>1690</ele>
        <time>2015-04-19T15:25:03Z</time>
      </trkpt>
      <trkpt lat="44.86676" lon="6.57361">
        <ele>1689</ele>
        <time>2015-04-19T15:25:05Z</time>
      </trkpt>
      <trkpt lat="44.8667" lon="6.57357">
        <ele>1688</ele>
        <time>2015-04-19T15:25:07Z</time>
      </trkpt>
      <trkpt lat="44.86665" lon="6.57349">
        <ele>1688</ele>
        <time>2015-04-19T15:25:09Z</time>
      </trkpt>
      <trkpt lat="44.86662" lon="6.57343">
        <ele>1687</ele>
        <time>2015-04-19T15:25:10Z</time>
      </trkpt>
      <trkpt lat="44.86656" lon="6.57336">
        <ele>1687</ele>
        <time>2015-04-19T15:25:12Z</time>
      </trkpt>
      <trkpt lat="44.86652" lon="6.57335">
        <ele>1686</ele>
        <time>2015-04-19T15:25:14Z</time>
      </trkpt>
      <trkpt lat="44.86647" lon="6.57337">
        <ele>1685</ele>
        <time>2015-04-19T15:25:16Z</time>
      </trkpt>
      <trkpt lat="44.86638" lon="6.57339">
        <ele>1679</ele>
        <time>2015-04-19T15:25:18Z</time>
      </trkpt>
      <trkpt lat="44.86634" lon="6.57341">
        <ele>1675</ele>
        <time>2015-04-19T15:25:19Z</time>
      </trkpt>
      <trkpt lat="44.86629" lon="6.57342">
        <ele>1675</ele>
        <time>2015-04-19T15:25:20Z</time>
      </trkpt>
      <trkpt lat="44.86621" lon="6.5734">
        <ele>1674</ele>
        <time>2015-04-19T15:25:22Z</time>
      </trkpt>
      <trkpt lat="44.86615" lon="6.57339">
        <ele>1673</ele>
        <time>2015-04-19T15:25:24Z</time>
      </trkpt>
      <trkpt lat="44.8661" lon="6.57336">
        <ele>1673</ele>
        <time>2015-04-19T15:25:25Z</time>
      </trkpt>
      <trkpt lat="44.86605" lon="6.57332">
        <ele>1673</ele>
        <time>2015-04-19T15:25:26Z</time>
      </trkpt>
      <trkpt lat="44.86601" lon="6.57325">
        <ele>1672</ele>
        <time>2015-04-19T15:25:27Z</time>
      </trkpt>
      <trkpt lat="44.86597" lon="6.57316">
        <ele>1672</ele>
        <time>2015-04-19T15:25:29Z</time>
      </trkpt>
      <trkpt lat="44.86594" lon="6.57309">
        <ele>1671</ele>
        <time>2015-04-19T15:25:32Z</time>
      </trkpt>
      <trkpt lat="44.86591" lon="6.57316">
        <ele>1670</ele>
        <time>2015-04-19T15:25:35Z</time>
      </trkpt>
      <trkpt lat="44.86589" lon="6.57322">
        <ele>1670</ele>
        <time>2015-04-19T15:25:37Z</time>
      </trkpt>
      <trkpt lat="44.86585" lon="6.57323">
        <ele>1668</ele>
        <time>2015-04-19T15:25:41Z</time>
      </trkpt>
      <trkpt lat="44.86581" lon="6.57328">
        <ele>1665</ele>
        <time>2015-04-19T15:25:47Z</time>
      </trkpt>
      <trkpt lat="44.86575" lon="6.5733">
        <ele>1664</ele>
        <time>2015-04-19T15:25:50Z</time>
      </trkpt>
      <trkpt lat="44.86566" lon="6.57326">
        <ele>1663</ele>
        <time>2015-04-19T15:25:52Z</time>
      </trkpt>
      <trkpt lat="44.8656" lon="6.57324">
        <ele>1662</ele>
        <time>2015-04-19T15:25:53Z</time>
      </trkpt>
      <trkpt lat="44.86556" lon="6.57321">
        <ele>1662</ele>
        <time>2015-04-19T15:25:54Z</time>
      </trkpt>
      <trkpt lat="44.86551" lon="6.5732">
        <ele>1661</ele>
        <time>2015-04-19T15:25:55Z</time>
      </trkpt>
      <trkpt lat="44.86546" lon="6.57318">
        <ele>1660</ele>
        <time>2015-04-19T15:25:56Z</time>
      </trkpt>
      <trkpt lat="44.86541" lon="6.57316">
        <ele>1660</ele>
        <time>2015-04-19T15:25:57Z</time>
      </trkpt>
      <trkpt lat="44.86535" lon="6.5731">
        <ele>1659</ele>
        <time>2015-04-19T15:25:59Z</time>
      </trkpt>
      <trkpt lat="44.86532" lon="6.57317">
        <ele>1656</ele>
        <time>2015-04-19T15:26:04Z</time>
      </trkpt>
      <trkpt lat="44.86527" lon="6.57322">
        <ele>1654</ele>
        <time>2015-04-19T15:26:07Z</time>
      </trkpt>
      <trkpt lat="44.86519" lon="6.57321">
        <ele>1652</ele>
        <time>2015-04-19T15:26:09Z</time>
      </trkpt>
      <trkpt lat="44.86515" lon="6.57323">
        <ele>1651</ele>
        <time>2015-04-19T15:26:11Z</time>
      </trkpt>
      <trkpt lat="44.86517" lon="6.57331">
        <ele>1648</ele>
        <time>2015-04-19T15:26:15Z</time>
      </trkpt>
      <trkpt lat="44.86521" lon="6.57338">
        <ele>1641</ele>
        <time>2015-04-19T15:26:16Z</time>
      </trkpt>
      <trkpt lat="44.86523" lon="6.57346">
        <ele>1636</ele>
        <time>2015-04-19T15:26:17Z</time>
      </trkpt>
      <trkpt lat="44.86527" lon="6.57354">
        <ele>1631</ele>
        <time>2015-04-19T15:26:18Z</time>
      </trkpt>
      <trkpt lat="44.86529" lon="6.57362">
        <ele>1631</ele>
        <time>2015-04-19T15:26:19Z</time>
      </trkpt>
      <trkpt lat="44.86532" lon="6.57369">
        <ele>1630</ele>
        <time>2015-04-19T15:26:20Z</time>
      </trkpt>
      <trkpt lat="44.86534" lon="6.57375">
        <ele>1630</ele>
        <time>2015-04-19T15:26:21Z</time>
      </trkpt>
      <trkpt lat="44.86531" lon="6.57382">
        <ele>1627</ele>
        <time>2015-04-19T15:26:28Z</time>
      </trkpt>
      <trkpt lat="44.86527" lon="6.57379">
        <ele>1626</ele>
        <time>2015-04-19T15:26:29Z</time>
      </trkpt>
      <trkpt lat="44.86522" lon="6.57376">
        <ele>1626</ele>
        <time>2015-04-19T15:26:30Z</time>
      </trkpt>
      <trkpt lat="44.86517" lon="6.57373">
        <ele>1625</ele>
        <time>2015-04-19T15:26:31Z</time>
      </trkpt>
      <trkpt lat="44.86511" lon="6.57369">
        <ele>1625</ele>
        <time>2015-04-19T15:26:32Z</time>
      </trkpt>
      <trkpt lat="44.86503" lon="6.57366">
        <ele>1619</ele>
        <time>2015-04-19T15:26:33Z</time>
      </trkpt>
      <trkpt lat="44.86495" lon="6.57365">
        <ele>1613</ele>
        <time>2015-04-19T15:26:34Z</time>
      </trkpt>
      <trkpt lat="44.8649" lon="6.57366">
        <ele>1609</ele>
        <time>2015-04-19T15:26:35Z</time>
      </trkpt>
      <trkpt lat="44.86485" lon="6.57367">
        <ele>1606</ele>
        <time>2015-04-19T15:26:36Z</time>
      </trkpt>
      <trkpt lat="44.86479" lon="6.57368">
        <ele>1602</ele>
        <time>2015-04-19T15:26:37Z</time>
      </trkpt>
      <trkpt lat="44.86474" lon="6.57368">
        <ele>1599</ele>
        <time>2015-04-19T15:26:38Z</time>
      </trkpt>
      <trkpt lat="44.86468" lon="6.5737">
        <ele>1598</ele>
        <time>2015-04-19T15:26:40Z</time>
      </trkpt>
      <trkpt lat="44.86464" lon="6.57373">
        <ele>1598</ele>
        <time>2015-04-19T15:26:42Z</time>
      </trkpt>
      <trkpt lat="44.86468" lon="6.57376">
        <ele>1597</ele>
        <time>2015-04-19T15:26:44Z</time>
      </trkpt>
      <trkpt lat="44.86472" lon="6.57382">
        <ele>1595</ele>
        <time>2015-04-19T15:26:45Z</time>
      </trkpt>
      <trkpt lat="44.86475" lon="6.57387">
        <ele>1594</ele>
        <time>2015-04-19T15:26:46Z</time>
      </trkpt>
      <trkpt lat="44.86481" lon="6.57392">
        <ele>1594</ele>
        <time>2015-04-19T15:26:48Z</time>
      </trkpt>
      <trkpt lat="44.86483" lon="6.574">
        <ele>1593</ele>
        <time>2015-04-19T15:26:51Z</time>
      </trkpt>
      <trkpt lat="44.86486" lon="6.5741">
        <ele>1592</ele>
        <time>2015-04-19T15:26:53Z</time>
      </trkpt>
      <trkpt lat="44.86491" lon="6.57418">
        <ele>1592</ele>
        <time>2015-04-19T15:26:55Z</time>
      </trkpt>
      <trkpt lat="44.86494" lon="6.57423">
        <ele>1590</ele>
        <time>2015-04-19T15:26:56Z</time>
      </trkpt>
      <trkpt lat="44.86497" lon="6.57429">
        <ele>1588</ele>
        <time>2015-04-19T15:26:57Z</time>
      </trkpt>
      <trkpt lat="44.865" lon="6.57435">
        <ele>1588</ele>
        <time>2015-04-19T15:26:58Z</time>
      </trkpt>
      <trkpt lat="44.86503" lon="6.5744">
        <ele>1588</ele>
        <time>2015-04-19T15:26:59Z</time>
      </trkpt>
      <trkpt lat="44.86505" lon="6.57446">
        <ele>1587</ele>
        <time>2015-04-19T15:27:00Z</time>
      </trkpt>
      <trkpt lat="44.86506" lon="6.57453">
        <ele>1587</ele>
        <time>2015-04-19T15:27:01Z</time>
      </trkpt>
      <trkpt lat="44.86506" lon="6.5746">
        <ele>1587</ele>
        <time>2015-04-19T15:27:02Z</time>
      </trkpt>
      <trkpt lat="44.86504" lon="6.57467">
        <ele>1586</ele>
        <time>2015-04-19T15:27:03Z</time>
      </trkpt>
      <trkpt lat="44.86501" lon="6.57472">
        <ele>1582</ele>
        <time>2015-04-19T15:27:04Z</time>
      </trkpt>
      <trkpt lat="44.86496" lon="6.57475">
        <ele>1582</ele>
        <time>2015-04-19T15:27:06Z</time>
      </trkpt>
      <trkpt lat="44.86491" lon="6.57479">
        <ele>1581</ele>
        <time>2015-04-19T15:27:08Z</time>
      </trkpt>
      <trkpt lat="44.86493" lon="6.57485">
        <ele>1579</ele>
        <time>2015-04-19T15:27:12Z</time>
      </trkpt>
      <trkpt lat="44.86497" lon="6.57491">
        <ele>1577</ele>
        <time>2015-04-19T15:27:14Z</time>
      </trkpt>
      <trkpt lat="44.86497" lon="6.57497">
        <ele>1576</ele>
        <time>2015-04-19T15:27:16Z</time>
      </trkpt>
      <trkpt lat="44.86493" lon="6.57501">
        <ele>1575</ele>
        <time>2015-04-19T15:27:18Z</time>
      </trkpt>
      <trkpt lat="44.86488" lon="6.57502">
        <ele>1574</ele>
        <time>2015-04-19T15:27:19Z</time>
      </trkpt>
      <trkpt lat="44.86482" lon="6.575">
        <ele>1568</ele>
        <time>2015-04-19T15:27:20Z</time>
      </trkpt>
      <trkpt lat="44.86476" lon="6.57498">
        <ele>1563</ele>
        <time>2015-04-19T15:27:21Z</time>
      </trkpt>
      <trkpt lat="44.8647" lon="6.5749">
        <ele>1558</ele>
        <time>2015-04-19T15:27:22Z</time>
      </trkpt>
      <trkpt lat="44.86466" lon="6.57483">
        <ele>1558</ele>
        <time>2015-04-19T15:27:23Z</time>
      </trkpt>
      <trkpt lat="44.86462" lon="6.57474">
        <ele>1557</ele>
        <time>2015-04-19T15:27:25Z</time>
      </trkpt>
      <trkpt lat="44.86457" lon="6.57468">
        <ele>1556</ele>
        <time>2015-04-19T15:27:27Z</time>
      </trkpt>
      <trkpt lat="44.86449" lon="6.57469">
        <ele>1556</ele>
        <time>2015-04-19T15:27:29Z</time>
      </trkpt>
      <trkpt lat="44.86444" lon="6.57467">
        <ele>1552</ele>
        <time>2015-04-19T15:27:30Z</time>
      </trkpt>
      <trkpt lat="44.8644" lon="6.57466">
        <ele>1549</ele>
        <time>2015-04-19T15:27:31Z</time>
      </trkpt>
      <trkpt lat="44.86435" lon="6.57463">
        <ele>1546</ele>
        <time>2015-04-19T15:27:32Z</time>
      </trkpt>
      <trkpt lat="44.86431" lon="6.57461">
        <ele>1542</ele>
        <time>2015-04-19T15:27:33Z</time>
      </trkpt>
      <trkpt lat="44.86425" lon="6.57457">
        <ele>1539</ele>
        <time>2015-04-19T15:27:34Z</time>
      </trkpt>
      <trkpt lat="44.8642" lon="6.57454">
        <ele>1536</ele>
        <time>2015-04-19T15:27:35Z</time>
      </trkpt>
      <trkpt lat="44.86414" lon="6.57453">
        <ele>1533</ele>
        <time>2015-04-19T15:27:36Z</time>
      </trkpt>
      <trkpt lat="44.86409" lon="6.57452">
        <ele>1531</ele>
        <time>2015-04-19T15:27:37Z</time>
      </trkpt>
      <trkpt lat="44.86404" lon="6.57451">
        <ele>1528</ele>
        <time>2015-04-19T15:27:38Z</time>
      </trkpt>
      <trkpt lat="44.86399" lon="6.5745">
        <ele>1527</ele>
        <time>2015-04-19T15:27:39Z</time>
      </trkpt>
      <trkpt lat="44.86393" lon="6.57449">
        <ele>1524</ele>
        <time>2015-04-19T15:27:40Z</time>
      </trkpt>
      <trkpt lat="44.86388" lon="6.57449">
        <ele>1522</ele>
        <time>2015-04-19T15:27:41Z</time>
      </trkpt>
      <trkpt lat="44.86382" lon="6.57449">
        <ele>1522</ele>
        <time>2015-04-19T15:27:43Z</time>
      </trkpt>
      <trkpt lat="44.86384" lon="6.57455">
        <ele>1521</ele>
        <time>2015-04-19T15:27:50Z</time>
      </trkpt>
      <trkpt lat="44.8639" lon="6.57462">
        <ele>1521</ele>
        <time>2015-04-19T15:27:52Z</time>
      </trkpt>
      <trkpt lat="44.86392" lon="6.57467">
        <ele>1521</ele>
        <time>2015-04-19T15:27:53Z</time>
      </trkpt>
      <trkpt lat="44.86398" lon="6.57475">
        <ele>1520</ele>
        <time>2015-04-19T15:27:55Z</time>
      </trkpt>
      <trkpt lat="44.86402" lon="6.57483">
        <ele>1520</ele>
        <time>2015-04-19T15:27:57Z</time>
      </trkpt>
      <trkpt lat="44.86397" lon="6.5749">
        <ele>1519</ele>
        <time>2015-04-19T15:28:00Z</time>
      </trkpt>
      <trkpt lat="44.8639" lon="6.57489">
        <ele>1518</ele>
        <time>2015-04-19T15:28:02Z</time>
      </trkpt>
      <trkpt lat="44.86385" lon="6.57489">
        <ele>1517</ele>
        <time>2015-04-19T15:28:03Z</time>
      </trkpt>
      <trkpt lat="44.86376" lon="6.57489">
        <ele>1516</ele>
        <time>2015-04-19T15:28:05Z</time>
      </trkpt>
      <trkpt lat="44.86371" lon="6.57487">
        <ele>1512</ele>
        <time>2015-04-19T15:28:06Z</time>
      </trkpt>
      <trkpt lat="44.86365" lon="6.57484">
        <ele>1508</ele>
        <time>2015-04-19T15:28:07Z</time>
      </trkpt>
      <trkpt lat="44.86357" lon="6.57481">
        <ele>1501</ele>
        <time>2015-04-19T15:28:09Z</time>
      </trkpt>
      <trkpt lat="44.86349" lon="6.57478">
        <ele>1501</ele>
        <time>2015-04-19T15:28:11Z</time>
      </trkpt>
      <trkpt lat="44.86345" lon="6.57476">
        <ele>1498</ele>
        <time>2015-04-19T15:28:12Z</time>
      </trkpt>
      <trkpt lat="44.86337" lon="6.57474">
        <ele>1498</ele>
        <time>2015-04-19T15:28:14Z</time>
      </trkpt>
      <trkpt lat="44.86332" lon="6.57474">
        <ele>1497</ele>
        <time>2015-04-19T15:28:16Z</time>
      </trkpt>
      <trkpt lat="44.86333" lon="6.57481">
        <ele>1496</ele>
        <time>2015-04-19T15:28:21Z</time>
      </trkpt>
      <trkpt lat="44.86336" lon="6.57491">
        <ele>1491</ele>
        <time>2015-04-19T15:28:23Z</time>
      </trkpt>
      <trkpt lat="44.8634" lon="6.57499">
        <ele>1488</ele>
        <time>2015-04-19T15:28:24Z</time>
      </trkpt>
      <trkpt lat="44.86343" lon="6.57507">
        <ele>1486</ele>
        <time>2015-04-19T15:28:25Z</time>
      </trkpt>
      <trkpt lat="44.86346" lon="6.57516">
        <ele>1485</ele>
        <time>2015-04-19T15:28:27Z</time>
      </trkpt>
      <trkpt lat="44.86342" lon="6.57521">
        <ele>1484</ele>
        <time>2015-04-19T15:28:30Z</time>
      </trkpt>
      <trkpt lat="44.86333" lon="6.57518">
        <ele>1478</ele>
        <time>2015-04-19T15:28:32Z</time>
      </trkpt>
      <trkpt lat="44.86327" lon="6.57514">
        <ele>1475</ele>
        <time>2015-04-19T15:28:33Z</time>
      </trkpt>
      <trkpt lat="44.86322" lon="6.5751">
        <ele>1473</ele>
        <time>2015-04-19T15:28:34Z</time>
      </trkpt>
      <trkpt lat="44.86317" lon="6.57507">
        <ele>1471</ele>
        <time>2015-04-19T15:28:35Z</time>
      </trkpt>
      <trkpt lat="44.86309" lon="6.57506">
        <ele>1469</ele>
        <time>2015-04-19T15:28:37Z</time>
      </trkpt>
      <trkpt lat="44.86304" lon="6.57506">
        <ele>1467</ele>
        <time>2015-04-19T15:28:38Z</time>
      </trkpt>
      <trkpt lat="44.86295" lon="6.57507">
        <ele>1464</ele>
        <time>2015-04-19T15:28:40Z</time>
      </trkpt>
      <trkpt lat="44.86289" lon="6.57507">
        <ele>1459</ele>
        <time>2015-04-19T15:28:42Z</time>
      </trkpt>
      <trkpt lat="44.86279" lon="6.57501">
        <ele>1457</ele>
        <time>2015-04-19T15:28:44Z</time>
      </trkpt>
      <trkpt lat="44.86274" lon="6.57496">
        <ele>1456</ele>
        <time>2015-04-19T15:28:45Z</time>
      </trkpt>
      <trkpt lat="44.8627" lon="6.57492">
        <ele>1455</ele>
        <time>2015-04-19T15:28:46Z</time>
      </trkpt>
      <trkpt lat="44.86266" lon="6.57488">
        <ele>1455</ele>
        <time>2015-04-19T15:28:47Z</time>
      </trkpt>
      <trkpt lat="44.86259" lon="6.57484">
        <ele>1455</ele>
        <time>2015-04-19T15:28:49Z</time>
      </trkpt>
      <trkpt lat="44.86253" lon="6.57483">
        <ele>1454</ele>
        <time>2015-04-19T15:28:51Z</time>
      </trkpt>
      <trkpt lat="44.86245" lon="6.57483">
        <ele>1454</ele>
        <time>2015-04-19T15:28:53Z</time>
      </trkpt>
      <trkpt lat="44.86239" lon="6.5748">
        <ele>1453</ele>
        <time>2015-04-19T15:28:55Z</time>
      </trkpt>
      <trkpt lat="44.86234" lon="6.5748">
        <ele>1450</ele>
        <time>2015-04-19T15:28:56Z</time>
      </trkpt>
      <trkpt lat="44.86228" lon="6.5748">
        <ele>1449</ele>
        <time>2015-04-19T15:28:58Z</time>
      </trkpt>
      <trkpt lat="44.86234" lon="6.57484">
        <ele>1448</ele>
        <time>2015-04-19T15:29:02Z</time>
      </trkpt>
      <trkpt lat="44.86241" lon="6.57489">
        <ele>1448</ele>
        <time>2015-04-19T15:29:04Z</time>
      </trkpt>
      <trkpt lat="44.86249" lon="6.57496">
        <ele>1447</ele>
        <time>2015-04-19T15:29:06Z</time>
      </trkpt>
      <trkpt lat="44.86255" lon="6.57504">
        <ele>1446</ele>
        <time>2015-04-19T15:29:08Z</time>
      </trkpt>
      <trkpt lat="44.8626" lon="6.57513">
        <ele>1441</ele>
        <time>2015-04-19T15:29:10Z</time>
      </trkpt>
      <trkpt lat="44.86262" lon="6.57519">
        <ele>1439</ele>
        <time>2015-04-19T15:29:11Z</time>
      </trkpt>
      <trkpt lat="44.86265" lon="6.57525">
        <ele>1438</ele>
        <time>2015-04-19T15:29:12Z</time>
      </trkpt>
      <trkpt lat="44.86268" lon="6.57532">
        <ele>1436</ele>
        <time>2015-04-19T15:29:13Z</time>
      </trkpt>
      <trkpt lat="44.86272" lon="6.5754">
        <ele>1434</ele>
        <time>2015-04-19T15:29:14Z</time>
      </trkpt>
      <trkpt lat="44.86275" lon="6.57546">
        <ele>1434</ele>
        <time>2015-04-19T15:29:15Z</time>
      </trkpt>
      <trkpt lat="44.86282" lon="6.57555">
        <ele>1432</ele>
        <time>2015-04-19T15:29:17Z</time>
      </trkpt>
      <trkpt lat="44.86287" lon="6.57563">
        <ele>1432</ele>
        <time>2015-04-19T15:29:19Z</time>
      </trkpt>
      <trkpt lat="44.86282" lon="6.57569">
        <ele>1431</ele>
        <time>2015-04-19T15:29:22Z</time>
      </trkpt>
      <trkpt lat="44.86278" lon="6.57573">
        <ele>1431</ele>
        <time>2015-04-19T15:29:24Z</time>
      </trkpt>
      <trkpt lat="44.86276" lon="6.57583">
        <ele>1429</ele>
        <time>2015-04-19T15:29:26Z</time>
      </trkpt>
      <trkpt lat="44.86274" lon="6.5759">
        <ele>1428</ele>
        <time>2015-04-19T15:29:27Z</time>
      </trkpt>
      <trkpt lat="44.8627" lon="6.57601">
        <ele>1426</ele>
        <time>2015-04-19T15:29:29Z</time>
      </trkpt>
      <trkpt lat="44.86267" lon="6.57607">
        <ele>1426</ele>
        <time>2015-04-19T15:29:30Z</time>
      </trkpt>
      <trkpt lat="44.86263" lon="6.57613">
        <ele>1426</ele>
        <time>2015-04-19T15:29:31Z</time>
      </trkpt>
      <trkpt lat="44.8626" lon="6.57619">
        <ele>1426</ele>
        <time>2015-04-19T15:29:32Z</time>
      </trkpt>
      <trkpt lat="44.86256" lon="6.57625">
        <ele>1425</ele>
        <time>2015-04-19T15:29:33Z</time>
      </trkpt>
      <trkpt lat="44.86248" lon="6.57633">
        <ele>1424</ele>
        <time>2015-04-19T15:29:35Z</time>
      </trkpt>
      <trkpt lat="44.86242" lon="6.57638">
        <ele>1423</ele>
        <time>2015-04-19T15:29:36Z</time>
      </trkpt>
      <trkpt lat="44.86235" lon="6.57645">
        <ele>1422</ele>
        <time>2015-04-19T15:29:37Z</time>
      </trkpt>
      <trkpt lat="44.8623" lon="6.57652">
        <ele>1421</ele>
        <time>2015-04-19T15:29:38Z</time>
      </trkpt>
      <trkpt lat="44.86226" lon="6.57659">
        <ele>1420</ele>
        <time>2015-04-19T15:29:39Z</time>
      </trkpt>
      <trkpt lat="44.86223" lon="6.57666">
        <ele>1419</ele>
        <time>2015-04-19T15:29:40Z</time>
      </trkpt>
      <trkpt lat="44.86219" lon="6.57672">
        <ele>1418</ele>
        <time>2015-04-19T15:29:41Z</time>
      </trkpt>
      <trkpt lat="44.86216" lon="6.57678">
        <ele>1416</ele>
        <time>2015-04-19T15:29:42Z</time>
      </trkpt>
      <trkpt lat="44.86212" lon="6.57682">
        <ele>1415</ele>
        <time>2015-04-19T15:29:45Z</time>
      </trkpt>
      <trkpt lat="44.86205" lon="6.57684">
        <ele>1411</ele>
        <time>2015-04-19T15:29:47Z</time>
      </trkpt>
      <trkpt lat="44.86198" lon="6.57688">
        <ele>1407</ele>
        <time>2015-04-19T15:29:49Z</time>
      </trkpt>
      <trkpt lat="44.86192" lon="6.57692">
        <ele>1406</ele>
        <time>2015-04-19T15:29:51Z</time>
      </trkpt>
      <trkpt lat="44.86186" lon="6.57697">
        <ele>1402</ele>
        <time>2015-04-19T15:29:53Z</time>
      </trkpt>
      <trkpt lat="44.86182" lon="6.57702">
        <ele>1399</ele>
        <time>2015-04-19T15:29:54Z</time>
      </trkpt>
      <trkpt lat="44.86178" lon="6.57705">
        <ele>1398</ele>
        <time>2015-04-19T15:29:55Z</time>
      </trkpt>
      <trkpt lat="44.86173" lon="6.57706">
        <ele>1398</ele>
        <time>2015-04-19T15:29:56Z</time>
      </trkpt>
      <trkpt lat="44.86168" lon="6.57707">
        <ele>1398</ele>
        <time>2015-04-19T15:29:57Z</time>
      </trkpt>
      <trkpt lat="44.86163" lon="6.57707">
        <ele>1397</ele>
        <time>2015-04-19T15:29:58Z</time>
      </trkpt>
      <trkpt lat="44.86158" lon="6.57709">
        <ele>1397</ele>
        <time>2015-04-19T15:29:59Z</time>
      </trkpt>
      <trkpt lat="44.86152" lon="6.5771">
        <ele>1394</ele>
        <time>2015-04-19T15:30:00Z</time>
      </trkpt>
      <trkpt lat="44.86148" lon="6.57713">
        <ele>1392</ele>
        <time>2015-04-19T15:30:01Z</time>
      </trkpt>
      <trkpt lat="44.86143" lon="6.57716">
        <ele>1390</ele>
        <time>2015-04-19T15:30:02Z</time>
      </trkpt>
      <trkpt lat="44.86136" lon="6.57721">
        <ele>1388</ele>
        <time>2015-04-19T15:30:04Z</time>
      </trkpt>
      <trkpt lat="44.86131" lon="6.57727">
        <ele>1386</ele>
        <time>2015-04-19T15:30:06Z</time>
      </trkpt>
      <trkpt lat="44.86125" lon="6.57731">
        <ele>1383</ele>
        <time>2015-04-19T15:30:08Z</time>
      </trkpt>
      <trkpt lat="44.8612" lon="6.57738">
        <ele>1380</ele>
        <time>2015-04-19T15:30:10Z</time>
      </trkpt>
      <trkpt lat="44.86114" lon="6.57744">
        <ele>1377</ele>
        <time>2015-04-19T15:30:12Z</time>
      </trkpt>
      <trkpt lat="44.86109" lon="6.5775">
        <ele>1377</ele>
        <time>2015-04-19T15:30:14Z</time>
      </trkpt>
      <trkpt lat="44.86104" lon="6.57755">
        <ele>1376</ele>
        <time>2015-04-19T15:30:16Z</time>
      </trkpt>
      <trkpt lat="44.861" lon="6.57759">
        <ele>1373</ele>
        <time>2015-04-19T15:30:17Z</time>
      </trkpt>
      <trkpt lat="44.86095" lon="6.57764">
        <ele>1370</ele>
        <time>2015-04-19T15:30:18Z</time>
      </trkpt>
      <trkpt lat="44.86091" lon="6.57768">
        <ele>1367</ele>
        <time>2015-04-19T15:30:19Z</time>
      </trkpt>
      <trkpt lat="44.86086" lon="6.57777">
        <ele>1362</ele>
        <time>2015-04-19T15:30:21Z</time>
      </trkpt>
      <trkpt lat="44.86085" lon="6.57789">
        <ele>1358</ele>
        <time>2015-04-19T15:30:23Z</time>
      </trkpt>
      <trkpt lat="44.86085" lon="6.57796">
        <ele>1357</ele>
        <time>2015-04-19T15:30:24Z</time>
      </trkpt>
      <trkpt lat="44.86084" lon="6.57804">
        <ele>1356</ele>
        <time>2015-04-19T15:30:25Z</time>
      </trkpt>
      <trkpt lat="44.86084" lon="6.5781">
        <ele>1356</ele>
        <time>2015-04-19T15:30:26Z</time>
      </trkpt>
      <trkpt lat="44.86083" lon="6.57817">
        <ele>1356</ele>
        <time>2015-04-19T15:30:28Z</time>
      </trkpt>
      <trkpt lat="44.86081" lon="6.57826">
        <ele>1355</ele>
        <time>2015-04-19T15:30:32Z</time>
      </trkpt>
      <trkpt lat="44.86083" lon="6.5783">
        <ele>1354</ele>
        <time>2015-04-19T15:30:55Z</time>
      </trkpt>
      <trkpt lat="44.86084" lon="6.57832">
        <ele>1354</ele>
        <time>2015-04-19T15:31:15Z</time>
      </trkpt>
      <trkpt lat="44.8608" lon="6.57837">
        <ele>1352</ele>
        <time>2015-04-19T15:31:29Z</time>
      </trkpt>
      <trkpt lat="44.86079" lon="6.57845">
        <ele>1351</ele>
        <time>2015-04-19T15:31:33Z</time>
      </trkpt>
      <trkpt lat="44.86074" lon="6.57849">
        <ele>1350</ele>
        <time>2015-04-19T15:31:38Z</time>
      </trkpt>
      <trkpt lat="44.86069" lon="6.57852">
        <ele>1349</ele>
        <time>2015-04-19T15:31:41Z</time>
      </trkpt>
      <trkpt lat="44.86066" lon="6.57858">
        <ele>1349</ele>
        <time>2015-04-19T15:31:44Z</time>
      </trkpt>
      <trkpt lat="44.86062" lon="6.57867">
        <ele>1348</ele>
        <time>2015-04-19T15:31:46Z</time>
      </trkpt>
      <trkpt lat="44.86057" lon="6.5787">
        <ele>1347</ele>
        <time>2015-04-19T15:31:48Z</time>
      </trkpt>
      <trkpt lat="44.86049" lon="6.57874">
        <ele>1343</ele>
        <time>2015-04-19T15:31:50Z</time>
      </trkpt>
      <trkpt lat="44.86044" lon="6.57877">
        <ele>1339</ele>
        <time>2015-04-19T15:31:51Z</time>
      </trkpt>
      <trkpt lat="44.86039" lon="6.57881">
        <ele>1336</ele>
        <time>2015-04-19T15:31:52Z</time>
      </trkpt>
      <trkpt lat="44.86033" lon="6.57883">
        <ele>1336</ele>
        <time>2015-04-19T15:31:54Z</time>
      </trkpt>
      <trkpt lat="44.86028" lon="6.57886">
        <ele>1335</ele>
        <time>2015-04-19T15:31:56Z</time>
      </trkpt>
      <trkpt lat="44.86024" lon="6.57893">
        <ele>1335</ele>
        <time>2015-04-19T15:31:58Z</time>
      </trkpt>
      <trkpt lat="44.86019" lon="6.57902">
        <ele>1334</ele>
        <time>2015-04-19T15:32:00Z</time>
      </trkpt>
      <trkpt lat="44.86012" lon="6.57909">
        <ele>1330</ele>
        <time>2015-04-19T15:32:02Z</time>
      </trkpt>
      <trkpt lat="44.86004" lon="6.57916">
        <ele>1329</ele>
        <time>2015-04-19T15:32:04Z</time>
      </trkpt>
      <trkpt lat="44.85998" lon="6.57922">
        <ele>1325</ele>
        <time>2015-04-19T15:32:06Z</time>
      </trkpt>
      <trkpt lat="44.85989" lon="6.57929">
        <ele>1318</ele>
        <time>2015-04-19T15:32:08Z</time>
      </trkpt>
      <trkpt lat="44.85985" lon="6.57934">
        <ele>1315</ele>
        <time>2015-04-19T15:32:09Z</time>
      </trkpt>
      <trkpt lat="44.8598" lon="6.57938">
        <ele>1313</ele>
        <time>2015-04-19T15:32:10Z</time>
      </trkpt>
      <trkpt lat="44.85975" lon="6.57942">
        <ele>1311</ele>
        <time>2015-04-19T15:32:11Z</time>
      </trkpt>
      <trkpt lat="44.85971" lon="6.57946">
        <ele>1308</ele>
        <time>2015-04-19T15:32:12Z</time>
      </trkpt>
      <trkpt lat="44.85966" lon="6.5795">
        <ele>1306</ele>
        <time>2015-04-19T15:32:13Z</time>
      </trkpt>
      <trkpt lat="44.85961" lon="6.57955">
        <ele>1304</ele>
        <time>2015-04-19T15:32:14Z</time>
      </trkpt>
      <trkpt lat="44.85956" lon="6.5796">
        <ele>1302</ele>
        <time>2015-04-19T15:32:15Z</time>
      </trkpt>
      <trkpt lat="44.85951" lon="6.57965">
        <ele>1300</ele>
        <time>2015-04-19T15:32:16Z</time>
      </trkpt>
      <trkpt lat="44.85946" lon="6.57968">
        <ele>1300</ele>
        <time>2015-04-19T15:32:18Z</time>
      </trkpt>
      <trkpt lat="44.85941" lon="6.57973">
        <ele>1300</ele>
        <time>2015-04-19T15:32:20Z</time>
      </trkpt>
      <trkpt lat="44.85937" lon="6.57978">
        <ele>1299</ele>
        <time>2015-04-19T15:32:22Z</time>
      </trkpt>
      <trkpt lat="44.85934" lon="6.57986">
        <ele>1299</ele>
        <time>2015-04-19T15:32:25Z</time>
      </trkpt>
      <trkpt lat="44.8594" lon="6.57985">
        <ele>1297</ele>
        <time>2015-04-19T15:32:32Z</time>
      </trkpt>
      <trkpt lat="44.85946" lon="6.57989">
        <ele>1297</ele>
        <time>2015-04-19T15:32:34Z</time>
      </trkpt>
      <trkpt lat="44.85954" lon="6.57994">
        <ele>1296</ele>
        <time>2015-04-19T15:32:36Z</time>
      </trkpt>
      <trkpt lat="44.85961" lon="6.57995">
        <ele>1295</ele>
        <time>2015-04-19T15:32:38Z</time>
      </trkpt>
      <trkpt lat="44.85966" lon="6.57997">
        <ele>1295</ele>
        <time>2015-04-19T15:32:40Z</time>
      </trkpt>
      <trkpt lat="44.85972" lon="6.58001">
        <ele>1294</ele>
        <time>2015-04-19T15:32:42Z</time>
      </trkpt>
      <trkpt lat="44.8597" lon="6.58008">
        <ele>1292</ele>
        <time>2015-04-19T15:32:47Z</time>
      </trkpt>
      <trkpt lat="44.85962" lon="6.58012">
        <ele>1291</ele>
        <time>2015-04-19T15:32:49Z</time>
      </trkpt>
      <trkpt lat="44.85956" lon="6.58013">
        <ele>1291</ele>
        <time>2015-04-19T15:32:50Z</time>
      </trkpt>
      <trkpt lat="44.8595" lon="6.58016">
        <ele>1287</ele>
        <time>2015-04-19T15:32:51Z</time>
      </trkpt>
      <trkpt lat="44.85944" lon="6.58018">
        <ele>1284</ele>
        <time>2015-04-19T15:32:52Z</time>
      </trkpt>
      <trkpt lat="44.85937" lon="6.58021">
        <ele>1281</ele>
        <time>2015-04-19T15:32:53Z</time>
      </trkpt>
      <trkpt lat="44.8593" lon="6.58023">
        <ele>1278</ele>
        <time>2015-04-19T15:32:54Z</time>
      </trkpt>
      <trkpt lat="44.85923" lon="6.58025">
        <ele>1276</ele>
        <time>2015-04-19T15:32:55Z</time>
      </trkpt>
      <trkpt lat="44.85916" lon="6.58026">
        <ele>1275</ele>
        <time>2015-04-19T15:32:56Z</time>
      </trkpt>
      <trkpt lat="44.8591" lon="6.58024">
        <ele>1274</ele>
        <time>2015-04-19T15:32:57Z</time>
      </trkpt>
      <trkpt lat="44.85904" lon="6.58021">
        <ele>1273</ele>
        <time>2015-04-19T15:32:58Z</time>
      </trkpt>
      <trkpt lat="44.85897" lon="6.58016">
        <ele>1271</ele>
        <time>2015-04-19T15:32:59Z</time>
      </trkpt>
      <trkpt lat="44.8589" lon="6.58011">
        <ele>1270</ele>
        <time>2015-04-19T15:33:00Z</time>
      </trkpt>
      <trkpt lat="44.85884" lon="6.58005">
        <ele>1269</ele>
        <time>2015-04-19T15:33:01Z</time>
      </trkpt>
      <trkpt lat="44.85878" lon="6.57996">
        <ele>1268</ele>
        <time>2015-04-19T15:33:02Z</time>
      </trkpt>
      <trkpt lat="44.85873" lon="6.57988">
        <ele>1267</ele>
        <time>2015-04-19T15:33:03Z</time>
      </trkpt>
      <trkpt lat="44.85872" lon="6.57977">
        <ele>1266</ele>
        <time>2015-04-19T15:33:04Z</time>
      </trkpt>
      <trkpt lat="44.8587" lon="6.57967">
        <ele>1265</ele>
        <time>2015-04-19T15:33:05Z</time>
      </trkpt>
      <trkpt lat="44.8587" lon="6.57957">
        <ele>1264</ele>
        <time>2015-04-19T15:33:06Z</time>
      </trkpt>
      <trkpt lat="44.85871" lon="6.57947">
        <ele>1263</ele>
        <time>2015-04-19T15:33:07Z</time>
      </trkpt>
      <trkpt lat="44.8587" lon="6.5794">
        <ele>1262</ele>
        <time>2015-04-19T15:33:08Z</time>
      </trkpt>
      <trkpt lat="44.85867" lon="6.57934">
        <ele>1262</ele>
        <time>2015-04-19T15:33:09Z</time>
      </trkpt>
      <trkpt lat="44.85861" lon="6.5793">
        <ele>1261</ele>
        <time>2015-04-19T15:33:11Z</time>
      </trkpt>
      <trkpt lat="44.8586" lon="6.57929">
        <ele>1260</ele>
        <time>2015-04-19T15:33:40Z</time>
      </trkpt>
    </trkseg>
  </trk>
</gpx>